createdAt,value
2023-01-09T00:01:59.494Z,99452.50
2023-01-09T00:04:25.872Z,99462.81
2023-01-09T00:06:55.874Z,99450.25
2023-01-09T00:09:24.046Z,99453.81
2023-01-09T00:11:51.360Z,99448.88
2023-01-09T00:14:18.905Z,99454.09
2023-01-09T00:16:45.449Z,99457.59
2023-01-09T00:19:12.273Z,99456.78
2023-01-09T00:21:38.840Z,99450.97
2023-01-09T00:24:05.625Z,99459.44
2023-01-09T00:26:32.470Z,99467.97
2023-01-09T00:28:59.252Z,99466.44
2023-01-09T00:31:25.762Z,99463.31
2023-01-09T00:33:59.603Z,99460.22
2023-01-09T00:36:26.066Z,99464.66
2023-01-09T00:38:55.114Z,99449.53
2023-01-09T00:41:30.107Z,99463.28
2023-01-09T00:44:02.181Z,99455.84
2023-01-09T00:46:34.481Z,99461.97
2023-01-09T00:49:05.457Z,99464.53
2023-01-09T00:51:31.815Z,99456.09
2023-01-09T00:53:58.344Z,99470.59
2023-01-09T00:56:25.968Z,99465.63
2023-01-09T00:58:53.480Z,99467.38
2023-01-09T01:01:20.083Z,99466.75
2023-01-09T01:03:46.615Z,99473.69
2023-01-09T01:06:31.699Z,99469.59
2023-01-09T01:08:58.217Z,99473.09
2023-01-09T01:11:24.895Z,99477.41
2023-01-09T01:13:51.549Z,99479.19
2023-01-09T01:16:18.659Z,99479.34
2023-01-09T01:18:45.446Z,99485.31
2023-01-09T01:21:13.842Z,99481.16
2023-01-09T01:23:40.423Z,99480.38
2023-01-09T01:26:16.264Z,99481.25
2023-01-09T01:28:43.484Z,99479.66
2023-01-09T01:31:17.490Z,99476.34
2023-01-09T01:33:43.993Z,99481.50
2023-01-09T01:36:10.868Z,99473.22
2023-01-09T01:38:37.466Z,99484.38
2023-01-09T01:41:04.833Z,99492.19
2023-01-09T01:44:02.031Z,99493.16
2023-01-09T01:46:30.225Z,99501.69
2023-01-09T01:49:11.504Z,99501.75
2023-01-09T01:51:42.884Z,99500.94
2023-01-09T01:54:17.955Z,99508.75
2023-01-09T01:56:53.272Z,99510.56
2023-01-09T01:59:31.944Z,99511.44
2023-01-09T02:02:01.232Z,99512.38
2023-01-09T02:04:30.159Z,99504.72
2023-01-09T02:06:57.045Z,99512.41
2023-01-09T02:09:25.161Z,99511.69
2023-01-09T02:11:56.743Z,99511.78
2023-01-09T02:14:26.223Z,99505.91
2023-01-09T02:17:22.264Z,99516.97
2023-01-09T02:20:07.344Z,99514.41
2023-01-09T02:22:39.803Z,99516.84
2023-01-09T02:25:31.800Z,99521.81
2023-01-09T02:28:48.350Z,99510.63
2023-01-09T02:31:21.011Z,99523.34
2023-01-09T02:34:00.144Z,99527.56
2023-01-09T02:36:38.691Z,99517.50
2023-01-09T02:39:32.445Z,99513.38
2023-01-09T02:42:15.015Z,99510.91
2023-01-09T02:44:43.073Z,99517.00
2023-01-09T02:47:15.296Z,99519.50
2023-01-09T02:49:50.221Z,99517.00
2023-01-09T02:52:35.459Z,99520.47
2023-01-09T02:55:17.720Z,99508.72
2023-01-09T02:58:05.220Z,99516.41
2023-01-09T03:00:41.584Z,99508.81
2023-01-09T03:03:17.644Z,99513.06
2023-01-09T03:05:53.274Z,99512.28
2023-01-09T03:08:22.999Z,99509.75
2023-01-09T03:10:59.275Z,99499.63
2023-01-09T03:13:32.209Z,99510.66
2023-01-09T03:16:02.925Z,99505.56
2023-01-09T03:18:31.751Z,99507.34
2023-01-09T03:20:58.674Z,99507.41
2023-01-09T03:23:26.235Z,99498.97
2023-01-09T03:25:55.532Z,99496.44
2023-01-09T03:28:31.086Z,99493.94
2023-01-09T03:30:57.489Z,99492.25
2023-01-09T03:33:23.973Z,99494.78
2023-01-09T03:35:50.427Z,99497.34
2023-01-09T03:38:16.932Z,99493.13
2023-01-09T03:40:43.789Z,99501.56
2023-01-09T03:43:10.386Z,99495.81
2023-01-09T03:45:37.214Z,99492.47
2023-01-09T03:48:03.819Z,99495.09
2023-01-09T03:50:30.237Z,99512.06
2023-01-09T03:52:56.728Z,99518.06
2023-01-09T03:55:23.181Z,99516.50
2023-01-09T03:57:49.813Z,99515.78
2023-01-09T04:00:16.458Z,99515.88
2023-01-09T04:02:43.263Z,99515.97
2023-01-09T04:05:09.915Z,99521.97
2023-01-09T04:07:36.316Z,99516.88
2023-01-09T04:10:03.234Z,99512.72
2023-01-09T04:12:29.742Z,99512.00
2023-01-09T04:14:56.184Z,99512.81
2023-01-09T04:17:22.672Z,99507.03
2023-01-09T04:19:49.116Z,99508.03
2023-01-09T04:22:15.493Z,99508.88
2023-01-09T04:24:41.968Z,99509.81
2023-01-09T04:27:08.575Z,99512.25
2023-01-09T04:29:34.935Z,99513.97
2023-01-09T04:32:01.373Z,99520.81
2023-01-09T04:34:27.731Z,99515.78
2023-01-09T04:36:54.825Z,99520.88
2023-01-09T04:39:22.291Z,99521.81
2023-01-09T04:41:51.777Z,99523.41
2023-01-09T04:44:26.207Z,99515.75
2023-01-09T04:46:53.583Z,99521.59
2023-01-09T04:49:20.564Z,99526.56
2023-01-09T04:51:47.688Z,99517.09
2023-01-09T04:54:14.587Z,99522.94
2023-01-09T04:56:40.984Z,99520.34
2023-01-09T04:59:08.553Z,99513.44
2023-01-09T05:01:35.415Z,99519.19
2023-01-09T05:04:02.138Z,99522.44
2023-01-09T05:06:28.869Z,99519.78
2023-01-09T05:08:56.534Z,99510.34
2023-01-09T05:11:25.402Z,99512.69
2023-01-09T05:13:52.811Z,99511.00
2023-01-09T05:16:19.948Z,99516.00
2023-01-09T05:18:46.432Z,99510.03
2023-01-09T05:21:13.941Z,99511.56
2023-01-09T05:23:40.446Z,99511.47
2023-01-09T05:26:06.924Z,99509.63
2023-01-09T05:28:33.538Z,99503.63
2023-01-09T05:30:59.934Z,99499.31
2023-01-09T05:33:26.345Z,99501.69
2023-01-09T05:35:52.703Z,99505.97
2023-01-09T05:38:19.151Z,99493.19
2023-01-09T05:40:45.572Z,99497.41
2023-01-09T05:43:12.913Z,99493.19
2023-01-09T05:45:39.407Z,99495.84
2023-01-09T05:48:06.157Z,99495.06
2023-01-09T05:50:32.604Z,99489.13
2023-01-09T05:52:58.956Z,99497.63
2023-01-09T05:55:25.317Z,99485.72
2023-01-09T05:57:51.731Z,99495.78
2023-01-09T06:00:18.990Z,99494.88
2023-01-09T06:02:45.475Z,99489.69
2023-01-09T06:05:12.094Z,99478.63
2023-01-09T06:07:40.634Z,99485.38
2023-01-09T06:10:12.592Z,99476.81
2023-01-09T06:12:39.211Z,99478.44
2023-01-09T06:15:08.683Z,99482.53
2023-01-09T06:17:35.322Z,99476.59
2023-01-09T06:20:01.788Z,99475.72
2023-01-09T06:22:28.225Z,99476.50
2023-01-09T06:24:54.620Z,99473.03
2023-01-09T06:27:21.092Z,99470.38
2023-01-09T06:29:47.563Z,99481.34
2023-01-09T06:32:14.043Z,99474.53
2023-01-09T06:34:40.543Z,99472.75
2023-01-09T06:37:07.046Z,99477.66
2023-01-09T06:39:33.522Z,99474.19
2023-01-09T06:42:00.113Z,99469.84
2023-01-09T06:44:26.493Z,99468.97
2023-01-09T06:46:52.924Z,99464.66
2023-01-09T06:49:23.542Z,99461.25
2023-01-09T06:51:51.267Z,99467.09
2023-01-09T06:54:19.350Z,99461.00
2023-01-09T06:56:45.914Z,99470.97
2023-01-09T06:59:12.821Z,99469.16
2023-01-09T07:01:42.527Z,99464.84
2023-01-09T07:04:11.840Z,99477.47
2023-01-09T07:06:38.436Z,99473.09
2023-01-09T07:09:06.102Z,99467.09
2023-01-09T07:11:33.318Z,99470.44
2023-01-09T07:13:59.752Z,99463.63
2023-01-09T07:16:26.223Z,99469.44
2023-01-09T07:18:52.731Z,99466.84
2023-01-09T07:21:19.797Z,99469.28
2023-01-09T07:23:46.797Z,99468.38
2023-01-09T07:26:13.312Z,99467.56
2023-01-09T07:28:39.653Z,99470.97
2023-01-09T07:31:07.641Z,99474.31
2023-01-09T07:33:35.376Z,99470.91
2023-01-09T07:36:01.810Z,99470.88
2023-01-09T07:38:28.277Z,99464.00
2023-01-09T07:40:54.849Z,99472.47
2023-01-09T07:43:21.324Z,99475.03
2023-01-09T07:45:47.761Z,99475.81
2023-01-09T07:48:14.287Z,99480.00
2023-01-09T07:50:40.750Z,99484.22
2023-01-09T07:53:09.383Z,99483.28
2023-01-09T07:55:35.875Z,99484.09
2023-01-09T07:58:02.402Z,99481.56
2023-01-09T08:00:28.864Z,99492.53
2023-01-09T08:02:55.428Z,99484.78
2023-01-09T08:05:22.836Z,99487.22
2023-01-09T08:07:51.281Z,99497.34
2023-01-09T08:10:19.793Z,99493.00
2023-01-09T08:12:47.691Z,99498.16
2023-01-09T08:15:14.404Z,99505.75
2023-01-09T08:17:43.006Z,99498.97
2023-01-09T08:20:14.377Z,99500.66
2023-01-09T08:22:49.735Z,99512.44
2023-01-09T08:25:17.732Z,99506.53
2023-01-09T08:27:44.694Z,99504.88
2023-01-09T08:30:12.097Z,99522.69
2023-01-09T08:32:39.105Z,99531.16
2023-01-09T08:35:06.040Z,99535.50
2023-01-09T08:37:32.508Z,99532.91
2023-01-09T08:39:59.012Z,99537.16
2023-01-09T08:42:44.373Z,99540.53
2023-01-09T08:45:32.568Z,99546.34
2023-01-09T08:47:59.068Z,99531.72
2023-01-09T08:50:25.553Z,99551.13
2023-01-09T08:52:52.015Z,99548.34
2023-01-09T08:55:18.817Z,99556.75
2023-01-09T08:57:53.483Z,99567.69
2023-01-09T09:00:22.121Z,99570.94
2023-01-09T09:02:56.364Z,99576.81
2023-01-09T09:05:24.427Z,99574.22
2023-01-09T09:07:54.652Z,99582.63
2023-01-09T09:10:25.623Z,99587.66
2023-01-09T09:12:54.374Z,99590.09
2023-01-09T09:15:24.144Z,99603.63
2023-01-09T09:17:56.006Z,99606.06
2023-01-09T09:20:24.596Z,99617.81
2023-01-09T09:22:51.348Z,99624.53
2023-01-09T09:25:18.691Z,99632.06
2023-01-09T09:27:45.462Z,99639.53
2023-01-09T09:30:17.856Z,99642.78
2023-01-09T09:32:44.735Z,99641.03
2023-01-09T09:35:11.725Z,99650.28
2023-01-09T09:37:38.476Z,99656.97
2023-01-09T09:40:17.569Z,99656.06
2023-01-09T09:43:43.223Z,99663.72
2023-01-09T09:46:39.002Z,99681.47
2023-01-09T09:49:35.537Z,99692.41
2023-01-09T09:52:25.962Z,99707.66
2023-01-09T09:54:52.952Z,99704.13
2023-01-09T09:57:25.767Z,99724.53
2023-01-09T09:59:53.383Z,99734.84
2023-01-09T10:02:30.971Z,99740.91
2023-01-09T10:05:05.203Z,99734.22
2023-01-09T10:07:41.903Z,99741.06
2023-01-09T10:10:34.228Z,99742.03
2023-01-09T10:13:21.005Z,99762.44
2023-01-09T10:16:04.149Z,99764.03
2023-01-09T10:18:48.998Z,99768.09
2023-01-09T10:21:43.683Z,99770.41
2023-01-09T10:24:21.926Z,99775.19
2023-01-09T10:26:51.678Z,99778.34
2023-01-09T10:29:33.393Z,99783.94
2023-01-09T10:32:12.146Z,99789.56
2023-01-09T10:34:50.140Z,99791.69
2023-01-09T10:37:23.520Z,99792.06
2023-01-09T10:39:59.291Z,99800.16
2023-01-09T10:42:36.534Z,99803.47
2023-01-09T10:45:28.705Z,99814.44
2023-01-09T10:48:03.275Z,99817.81
2023-01-09T10:50:40.567Z,99828.09
2023-01-09T10:53:27.790Z,99820.66
2023-01-09T10:56:13.394Z,99834.66
2023-01-09T10:58:39.825Z,99836.59
2023-01-09T11:01:07.876Z,99844.25
2023-01-09T11:03:34.339Z,99850.31
2023-01-09T11:06:03.057Z,99850.31
2023-01-09T11:08:40.204Z,99852.84
2023-01-09T11:11:06.681Z,99853.25
2023-01-09T11:13:35.158Z,99858.56
2023-01-09T11:16:09.225Z,99850.09
2023-01-09T11:18:40.882Z,99859.06
2023-01-09T11:21:35.668Z,99862.56
2023-01-09T11:24:22.405Z,99863.28
2023-01-09T11:26:51.032Z,99858.13
2023-01-09T11:29:20.154Z,99870.72
2023-01-09T11:32:01.847Z,99873.81
2023-01-09T11:34:31.855Z,99871.63
2023-01-09T11:37:13.883Z,99878.41
2023-01-09T11:39:47.901Z,99875.81
2023-01-09T11:42:44.609Z,99877.28
2023-01-09T11:45:16.310Z,99892.69
2023-01-09T11:47:43.450Z,99896.50
2023-01-09T11:50:26.359Z,99902.38
2023-01-09T11:53:18.807Z,99899.88
2023-01-09T11:55:46.985Z,99909.09
2023-01-09T11:58:18.918Z,99906.66
2023-01-09T12:01:00.217Z,99912.72
2023-01-09T12:03:54.539Z,99912.84
2023-01-09T12:06:38.727Z,99917.41
2023-01-09T12:09:07.932Z,99920.09
2023-01-09T12:12:08.242Z,99923.78
2023-01-09T12:14:49.121Z,99919.78
2023-01-09T12:17:40.999Z,99921.63
2023-01-09T12:20:34.817Z,99927.63
2023-01-09T12:23:01.352Z,99933.69
2023-01-09T12:25:49.658Z,99941.56
2023-01-09T12:28:22.140Z,99948.53
2023-01-09T12:31:26.160Z,99940.97
2023-01-09T12:34:11.672Z,99943.63
2023-01-09T12:36:59.357Z,99956.38
2023-01-09T12:39:52.522Z,99954.53
2023-01-09T12:42:29.618Z,99963.81
2023-01-09T12:45:34.485Z,99961.97
2023-01-09T12:48:13.603Z,99954.97
2023-01-09T12:51:00.604Z,99964.09
2023-01-09T12:53:32.413Z,99961.28
2023-01-09T12:56:06.813Z,99964.47
2023-01-09T12:58:56.198Z,99955.75
2023-01-09T13:01:30.482Z,99959.88
2023-01-09T13:04:24.611Z,99964.28
2023-01-09T13:07:18.668Z,99963.72
2023-01-09T13:10:30.636Z,99968.97
2023-01-09T13:13:00.288Z,99969.00
2023-01-09T13:15:36.525Z,99975.00
2023-01-09T13:18:15.586Z,99975.00
2023-01-09T13:20:46.122Z,99995.34
2023-01-09T13:23:26.661Z,99997.19
2023-01-09T13:25:57.680Z,99998.06
2023-01-09T13:28:47.294Z,99998.81
2023-01-09T13:31:35.603Z,100010.63
2023-01-09T13:34:06.563Z,100008.84
2023-01-09T13:36:45.748Z,100012.97
2023-01-09T13:39:21.457Z,100013.63
2023-01-09T13:42:11.309Z,100021.16
2023-01-09T13:44:37.921Z,100030.69
2023-01-09T13:47:04.685Z,100031.56
2023-01-09T13:49:53.775Z,100027.50
2023-01-09T13:52:38.507Z,100033.69
2023-01-09T13:55:17.552Z,100038.13
2023-01-09T13:58:13.666Z,100047.69
2023-01-09T14:00:44.489Z,100053.78
2023-01-09T14:03:52.986Z,100053.19
2023-01-09T14:06:19.767Z,100060.16
2023-01-09T14:08:48.323Z,100069.59
2023-01-09T14:11:19.978Z,100077.31
2023-01-09T14:13:52.534Z,100075.75
2023-01-09T14:16:24.906Z,100078.47
2023-01-09T14:19:03.268Z,100091.34
2023-01-09T14:21:45.820Z,100091.50
2023-01-09T14:24:23.884Z,100104.34
2023-01-09T14:26:56.667Z,100104.34
2023-01-09T14:29:35.870Z,100115.31
2023-01-09T14:32:20.621Z,100117.91
2023-01-09T14:34:58.605Z,100132.38
2023-01-09T14:37:28.564Z,100138.31
2023-01-09T14:39:56.723Z,100144.22
2023-01-09T14:42:27.318Z,100145.97
2023-01-09T14:45:04.094Z,100154.41
2023-01-09T14:47:41.773Z,100154.31
2023-01-09T14:50:51.662Z,100164.50
2023-01-09T14:53:21.105Z,100179.00
2023-01-09T14:56:01.776Z,100180.84
2023-01-09T14:58:35.724Z,100186.97
2023-01-09T15:01:14.934Z,100193.94
2023-01-09T15:03:58.826Z,100201.75
2023-01-09T15:06:28.531Z,100214.72
2023-01-09T15:09:20.961Z,100215.78
2023-01-09T15:11:47.751Z,100222.72
2023-01-09T15:14:40.534Z,100231.34
2023-01-09T15:17:28.479Z,100241.59
2023-01-09T15:19:56.464Z,100244.25
2023-01-09T15:22:25.640Z,100250.25
2023-01-09T15:24:52.317Z,100251.19
2023-01-09T15:27:24.800Z,100252.13
2023-01-09T15:29:52.555Z,100260.56
2023-01-09T15:32:24.956Z,100261.47
2023-01-09T15:34:52.442Z,100270.19
2023-01-09T15:37:40.339Z,100278.81
2023-01-09T15:40:13.492Z,100282.94
2023-01-09T15:42:57.154Z,100281.41
2023-01-09T15:45:29.329Z,100284.91
2023-01-09T15:48:24.572Z,100294.28
2023-01-09T15:51:13.305Z,100299.56
2023-01-09T15:53:41.641Z,100313.34
2023-01-09T15:56:24.883Z,100314.94
2023-01-09T15:58:54.923Z,100309.03
2023-01-09T16:01:33.738Z,100318.50
2023-01-09T16:04:17.751Z,100327.06
2023-01-09T16:06:48.070Z,100319.59
2023-01-09T16:09:21.931Z,100335.06
2023-01-09T16:11:55.440Z,100332.63
2023-01-09T16:14:47.622Z,100348.06
2023-01-09T16:17:16.922Z,100352.38
2023-01-09T16:19:55.296Z,100357.59
2023-01-09T16:22:33.435Z,100361.94
2023-01-09T16:25:02.281Z,100372.09
2023-01-09T16:27:32.057Z,100370.41
2023-01-09T16:30:07.387Z,100371.34
2023-01-09T16:32:47.445Z,100379.19
2023-01-09T16:35:20.143Z,100375.91
2023-01-09T16:37:47.129Z,100375.09
2023-01-09T16:40:16.932Z,100387.09
2023-01-09T16:43:03.017Z,100389.72
2023-01-09T16:45:33.536Z,100391.53
2023-01-09T16:48:10.204Z,100406.84
2023-01-09T16:50:36.754Z,100408.50
2023-01-09T16:53:12.852Z,100415.31
2023-01-09T16:55:39.350Z,100412.00
2023-01-09T16:58:05.915Z,100407.03
2023-01-09T17:00:32.511Z,100421.41
2023-01-09T17:03:00.667Z,100422.19
2023-01-09T17:05:27.036Z,100429.78
2023-01-09T17:07:54.610Z,100433.09
2023-01-09T17:10:22.756Z,100429.66
2023-01-09T17:12:49.319Z,100438.09
2023-01-09T17:15:16.274Z,100448.25
2023-01-09T17:17:42.871Z,100456.66
2023-01-09T17:20:17.995Z,100454.88
2023-01-09T17:22:44.457Z,100464.13
2023-01-09T17:25:35.177Z,100459.78
2023-01-09T17:28:21.411Z,100459.78
2023-01-09T17:30:47.881Z,100466.56
2023-01-09T17:33:16.939Z,100481.88
2023-01-09T17:35:43.883Z,100486.19
2023-01-09T17:38:14.271Z,100485.47
2023-01-09T17:40:41.165Z,100479.59
2023-01-09T17:43:07.611Z,100493.25
2023-01-09T17:45:34.104Z,100498.38
2023-01-09T17:48:00.517Z,100508.56
2023-01-09T17:50:29.717Z,100507.63
2023-01-09T17:52:56.110Z,100509.28
2023-01-09T17:55:22.514Z,100514.31
2023-01-09T17:57:49.510Z,100525.41
2023-01-09T18:00:39.571Z,100522.84
2023-01-09T18:03:07.607Z,100528.78
2023-01-09T18:05:34.442Z,100533.03
2023-01-09T18:08:01.034Z,100545.78
2023-01-09T18:10:27.561Z,100556.84
2023-01-09T18:12:55.789Z,100560.34
2023-01-09T18:15:24.410Z,100568.00
2023-01-09T18:17:52.256Z,100570.66
2023-01-09T18:20:19.047Z,100575.78
2023-01-09T18:22:45.450Z,100578.38
2023-01-09T18:25:11.994Z,100575.00
2023-01-09T18:27:38.641Z,100591.94
2023-01-09T18:30:06.241Z,100597.84
2023-01-09T18:32:33.081Z,100604.66
2023-01-09T18:34:59.443Z,100616.47
2023-01-09T18:37:25.846Z,100621.50
2023-01-09T18:39:52.275Z,100634.19
2023-01-09T18:42:19.040Z,100630.75
2023-01-09T18:44:45.623Z,100644.31
2023-01-09T18:47:12.424Z,100644.28
2023-01-09T18:49:38.849Z,100642.56
2023-01-09T18:52:07.461Z,100652.69
2023-01-09T18:54:34.217Z,100650.16
2023-01-09T18:57:00.761Z,100668.88
2023-01-09T18:59:27.205Z,100681.59
2023-01-09T19:01:53.586Z,100692.66
2023-01-09T19:04:20.060Z,100697.75
2023-01-09T19:06:46.483Z,100707.13
2023-01-09T19:09:13.029Z,100704.56
2023-01-09T19:11:39.842Z,100708.81
2023-01-09T19:14:06.328Z,100704.56
2023-01-09T19:16:32.947Z,100709.69
2023-01-09T19:19:01.925Z,100712.25
2023-01-09T19:21:29.739Z,100715.63
2023-01-09T19:23:56.174Z,100724.09
2023-01-09T19:26:24.562Z,100729.25
2023-01-09T19:28:54.897Z,100736.97
2023-01-09T19:31:24.904Z,100741.25
2023-01-09T19:33:52.474Z,100754.91
2023-01-09T19:36:18.999Z,100755.84
2023-01-09T19:38:45.561Z,100770.38
2023-01-09T19:41:19.164Z,100775.50
2023-01-09T19:43:46.388Z,100781.44
2023-01-09T19:46:15.458Z,100785.69
2023-01-09T19:48:44.823Z,100788.31
2023-01-09T19:51:12.658Z,100781.59
2023-01-09T19:53:39.509Z,100796.16
2023-01-09T19:56:28.349Z,100805.59
2023-01-09T19:58:58.198Z,100815.03
2023-01-09T20:01:30.127Z,100820.19
2023-01-09T20:03:58.614Z,100813.44
2023-01-09T20:06:26.348Z,100827.88
2023-01-09T20:08:55.552Z,100832.13
2023-01-09T20:11:23.385Z,100830.47
2023-01-09T20:13:50.187Z,100822.03
2023-01-09T20:16:22.377Z,100839.00
2023-01-09T20:18:48.884Z,100844.94
2023-01-09T20:21:22.167Z,100845.75
2023-01-09T20:23:49.772Z,100853.38
2023-01-09T20:26:17.622Z,100865.25
2023-01-09T20:28:44.926Z,100873.72
2023-01-09T20:31:13.259Z,100871.22
2023-01-09T20:33:39.860Z,100872.13
2023-01-09T20:36:06.613Z,100880.66
2023-01-09T20:38:33.199Z,100889.06
2023-01-09T20:41:11.134Z,100896.59
2023-01-09T20:43:37.734Z,100896.44
2023-01-09T20:46:04.658Z,100898.09
2023-01-09T20:48:31.293Z,100903.09
2023-01-09T20:51:04.447Z,100902.25
2023-01-09T20:53:30.950Z,100917.59
2023-01-09T20:56:06.273Z,100912.56
2023-01-09T20:58:33.639Z,100922.84
2023-01-09T21:01:08.510Z,100927.16
2023-01-09T21:03:35.334Z,100929.81
2023-01-09T21:06:09.536Z,100935.81
2023-01-09T21:08:36.671Z,100934.19
2023-01-09T21:11:04.831Z,100937.63
2023-01-09T21:13:31.798Z,100937.63
2023-01-09T21:16:10.215Z,100947.78
2023-01-09T21:18:37.520Z,100949.41
2023-01-09T21:21:05.727Z,100948.56
2023-01-09T21:23:33.120Z,100950.25
2023-01-09T21:26:00.103Z,100952.81
2023-01-09T21:28:27.820Z,100960.44
2023-01-09T21:30:54.412Z,100971.44
2023-01-09T21:33:23.680Z,100968.09
2023-01-09T21:35:58.132Z,100973.22
2023-01-09T21:38:26.214Z,100978.31
2023-01-09T21:40:53.900Z,100982.56
2023-01-09T21:43:47.333Z,100989.41
2023-01-09T21:46:37.239Z,100980.84
2023-01-09T21:49:04.843Z,100997.00
2023-01-09T21:51:31.629Z,101003.78
2023-01-09T21:53:58.043Z,101003.78
2023-01-09T21:56:24.449Z,101003.84
2023-01-09T21:58:50.970Z,101012.31
2023-01-09T22:01:19.952Z,101017.44
2023-01-09T22:03:46.457Z,101024.19
2023-01-09T22:06:12.965Z,101020.84
2023-01-09T22:08:39.328Z,101031.03
2023-01-09T22:11:05.749Z,101036.16
2023-01-09T22:13:32.238Z,101035.31
2023-01-09T22:16:07.160Z,101044.59
2023-01-09T22:18:35.313Z,101043.72
2023-01-09T22:21:02.747Z,101048.84
2023-01-09T22:23:30.091Z,101050.53
2023-01-09T22:25:56.695Z,101062.41
2023-01-09T22:28:23.972Z,101067.50
2023-01-09T22:30:50.384Z,101073.47
2023-01-09T22:33:18.550Z,101076.00
2023-01-09T22:35:44.982Z,101091.25
2023-01-09T22:38:12.070Z,101095.44
2023-01-09T22:40:39.109Z,101099.66
2023-01-09T22:43:06.020Z,101111.53
2023-01-09T22:45:32.987Z,101120.88
2023-01-09T22:47:59.499Z,101125.09
2023-01-09T22:50:25.993Z,101130.19
2023-01-09T22:52:55.617Z,101125.13
2023-01-09T22:55:22.216Z,101133.66
2023-01-09T22:57:48.668Z,101131.13
2023-01-09T23:00:15.557Z,101139.59
2023-01-09T23:02:42.070Z,101136.22
2023-01-09T23:05:08.749Z,101149.00
2023-01-09T23:07:37.328Z,101152.41
2023-01-09T23:10:05.627Z,101153.25
2023-01-09T23:12:32.757Z,101166.81
2023-01-09T23:14:59.195Z,101172.78
2023-01-09T23:17:25.652Z,101171.94
2023-01-09T23:19:52.206Z,101183.84
2023-01-09T23:22:18.944Z,101177.03
2023-01-09T23:24:45.404Z,101180.44
2023-01-09T23:27:11.864Z,101183.84
2023-01-09T23:29:39.693Z,101196.59
2023-01-09T23:32:06.479Z,101194.06
2023-01-09T23:34:33.756Z,101201.72
2023-01-09T23:37:00.775Z,101211.88
2023-01-09T23:39:27.403Z,101207.66
2023-01-09T23:42:12.274Z,101214.38
2023-01-09T23:44:38.805Z,101211.00
2023-01-09T23:47:05.291Z,101218.66
2023-01-09T23:49:31.767Z,101224.59
2023-01-09T23:51:58.249Z,101218.66
2023-01-09T23:54:24.991Z,101219.50
2023-01-09T23:56:53.232Z,101233.09
2023-01-09T23:59:19.794Z,101238.22
